KPZQ

Presque Isle County Airport

Rogers City, Michigan, USA
METAR KPZQ 170015Z AUTO 24008KT 10SM CLR 02/M03 A2985 RMK AO2 T00191029
Observed Flight Rules
Dec-17 @ 00:15 UTC (8 minutes ago) Visual Flight Rules
Wind Visibility Clouds
240° at 8 knots 10 miles
  • Clear skies
Temperatures Readings
Current 2°C / 36°F
Dewpoint -3°C / 27°F
Humidity 70%
Altimeter 29.85" Hg
Pressure 1011 hPa
Elevation 204
METAR KPZQ 170015Z AUTO 24008KT 10SM CLR 02/M03 A2985 RMK AO2 T00191029
Observed Flight Rules
Dec-17 @ 00:15 UTC
(8 minutes ago)
VFR
Wind Visibility
240° at 8 knots 10 miles
Clouds
  • Clear skies
Temperature Dewpoint
2°C / 36°F -3°C / 27°F
Humidity Altimeter Pressure
70% 29.85" Hg 1011 hPa